Time,TemperatureF,DewpointF,PressureIn,WindDirection,WindDirectionDegrees,WindSpeedMPH,WindSpeedGustMPH,Humidity,HourlyPrecipIn,Conditions,Clouds,dailyrainin,SoftwareType,DateUTC
2013-07-12 00:05:00,81.3,59.2,30.03,SE,135,2.7,8.1,47,0.00,,---,0.00,VWS V14.01,2013-07-12 05:05:00,
2013-07-12 00:10:00,81.0,58.9,30.06,SE,135,4.3,6.5,47,0.00,,---,0.00,VWS V14.01,2013-07-12 05:10:00,
2013-07-12 00:16:00,80.8,59.3,30.06,SE,135,4.9,4.9,48,0.00,,---,0.00,VWS V14.01,2013-07-12 05:16:00,
2013-07-12 00:21:00,80.6,59.7,30.06,SSE,158,2.2,2.5,49,0.00,,---,0.00,VWS V14.01,2013-07-12 05:21:00,
2013-07-12 00:26:00,80.4,59.5,30.06,SE,135,0.0,2.7,49,0.00,,---,0.00,VWS V14.01,2013-07-12 05:26:00,
2013-07-12 00:31:00,80.1,59.8,30.06,SE,135,0.9,2.5,50,0.00,,---,0.00,VWS V14.01,2013-07-12 05:31:00,
2013-07-12 00:36:00,80.1,59.8,30.06,SSE,158,3.4,7.4,50,0.00,,---,0.00,VWS V14.01,2013-07-12 05:36:00,
2013-07-12 00:41:00,79.9,60.2,30.06,SSE,158,3.4,9.8,51,0.00,,---,0.00,VWS V14.01,2013-07-12 05:41:00,
2013-07-12 00:46:00,79.9,60.2,30.06,SE,135,3.6,4.7,51,0.00,,---,0.00,VWS V14.01,2013-07-12 05:46:00,
2013-07-12 00:52:00,79.7,60.5,30.06,SSE,158,2.5,7.2,52,0.00,,---,0.00,VWS V14.01,2013-07-12 05:52:00,
2013-07-12 00:57:00,79.5,60.4,30.06,SSE,158,6.0,8.1,52,0.00,,---,0.00,VWS V14.01,2013-07-12 05:57:00,
2013-07-12 01:02:00,79.5,60.9,30.06,SSE,158,8.1,8.1,53,0.00,,---,0.00,VWS V14.01,2013-07-12 06:02:00,
2013-07-12 01:07:00,79.3,60.7,30.06,SSW,202,5.4,5.4,53,0.00,,---,0.00,VWS V14.01,2013-07-12 06:07:00,
2013-07-12 01:13:00,79.2,61.1,30.06,SE,135,4.0,6.0,54,0.00,,---,0.00,VWS V14.01,2013-07-12 06:13:00,
2013-07-12 01:19:00,78.8,60.8,30.06,ESE,112,4.9,5.4,54,0.00,,---,0.00,VWS V14.01,2013-07-12 06:19:00,
2013-07-12 01:24:00,78.6,61.1,30.06,South,180,0.0,0.0,55,0.00,,---,0.00,VWS V14.01,2013-07-12 06:24:00,
2013-07-12 01:30:00,78.6,61.6,30.06,South,180,2.0,4.9,56,0.00,,---,0.00,VWS V14.01,2013-07-12 06:30:00,
2013-07-12 01:35:00,78.4,61.5,30.06,SSE,158,4.9,6.3,56,0.00,,---,0.00,VWS V14.01,2013-07-12 06:35:00,
2013-07-12 01:41:00,78.3,61.3,30.06,SE,135,6.0,6.0,56,0.00,,---,0.00,VWS V14.01,2013-07-12 06:41:00,
2013-07-12 01:47:00,78.3,61.8,30.06,SSE,158,3.8,6.0,57,0.00,,---,0.00,VWS V14.01,2013-07-12 06:47:00,
2013-07-12 01:52:00,78.1,61.6,30.06,SE,135,2.0,5.4,57,0.00,,---,0.00,VWS V14.01,2013-07-12 06:52:00,
2013-07-12 01:58:00,77.9,62.0,30.03,SE,135,6.5,6.5,58,0.00,,---,0.00,VWS V14.01,2013-07-12 06:58:00,
2013-07-12 02:03:00,77.9,62.0,30.03,SE,135,3.8,3.8,58,0.00,,---,0.00,VWS V14.01,2013-07-12 07:03:00,
2013-07-12 02:09:00,77.7,61.8,30.03,South,180,0.0,3.1,58,0.00,,---,0.00,VWS V14.01,2013-07-12 07:09:00,
2013-07-12 02:15:00,77.7,61.8,30.06,South,180,5.8,5.8,58,0.00,,---,0.00,VWS V14.01,2013-07-12 07:15:00,
2013-07-12 02:20:00,77.5,62.1,30.06,SE,135,5.8,5.8,59,0.00,,---,0.00,VWS V14.01,2013-07-12 07:20:00,
2013-07-12 02:26:00,77.2,61.8,30.06,SSE,158,2.5,3.1,59,0.00,,---,0.00,VWS V14.01,2013-07-12 07:26:00,
2013-07-12 02:32:00,77.4,61.9,30.06,SE,135,4.7,4.7,59,0.00,,---,0.00,VWS V14.01,2013-07-12 07:32:00,
2013-07-12 02:37:00,77.4,61.9,30.06,SSE,158,4.0,5.8,59,0.00,,---,0.00,VWS V14.01,2013-07-12 07:37:00,
2013-07-12 02:43:00,77.4,61.9,30.03,South,180,2.5,4.9,59,0.00,,---,0.00,VWS V14.01,2013-07-12 07:43:00,
2013-07-12 02:48:00,77.2,61.8,30.03,SSW,202,1.1,3.8,59,0.00,,---,0.00,VWS V14.01,2013-07-12 07:48:00,
2013-07-12 02:54:00,77.0,62.1,30.03,SSW,202,0.0,1.6,60,0.00,,---,0.00,VWS V14.01,2013-07-12 07:54:00,
2013-07-12 02:59:00,76.8,61.9,30.06,South,180,1.1,3.1,60,0.00,,---,0.00,VWS V14.01,2013-07-12 07:59:00,
2013-07-12 03:05:00,76.8,62.4,30.06,South,180,0.0,2.9,61,0.00,,---,0.00,VWS V14.01,2013-07-12 08:05:00,
2013-07-12 03:11:00,76.6,62.2,30.06,SSW,202,0.9,1.6,61,0.00,,---,0.00,VWS V14.01,2013-07-12 08:11:00,
2013-07-12 03:16:00,76.3,61.9,30.06,SSW,202,0.0,1.6,61,0.00,,---,0.00,VWS V14.01,2013-07-12 08:16:00,
2013-07-12 03:22:00,76.1,62.2,30.06,South,180,0.0,2.7,62,0.00,,---,0.00,VWS V14.01,2013-07-12 08:22:00,
2013-07-12 03:27:00,75.9,62.0,30.03,SSE,158,0.0,4.3,62,0.00,,---,0.00,VWS V14.01,2013-07-12 08:27:00,
2013-07-12 03:32:00,75.7,61.8,30.03,SSE,158,0.0,0.0,62,0.00,,---,0.00,VWS V14.01,2013-07-12 08:32:00,
2013-07-12 03:37:00,75.6,62.1,30.03,SSE,158,0.0,2.7,63,0.00,,---,0.00,VWS V14.01,2013-07-12 08:37:00,
2013-07-12 03:43:00,75.2,62.2,30.03,South,180,0.0,0.0,64,0.00,,---,0.00,VWS V14.01,2013-07-12 08:43:00,
2013-07-12 03:48:00,75.0,62.0,30.03,SSE,158,0.0,0.0,64,0.00,,---,0.00,VWS V14.01,2013-07-12 08:48:00,
2013-07-12 03:54:00,74.7,61.7,30.03,SSE,158,0.0,0.0,64,0.00,,---,0.00,VWS V14.01,2013-07-12 08:54:00,
2013-07-12 03:59:00,74.7,62.6,30.03,SSE,158,0.0,1.3,66,0.00,,---,0.00,VWS V14.01,2013-07-12 08:59:00,
2013-07-12 04:05:00,74.5,62.4,30.03,SE,135,0.9,1.6,66,0.00,,---,0.00,VWS V14.01,2013-07-12 09:05:00,
2013-07-12 04:11:00,74.3,62.2,30.03,SE,135,0.0,0.0,66,0.00,,---,0.00,VWS V14.01,2013-07-12 09:11:00,
2013-07-12 04:16:00,74.3,62.6,30.03,South,180,0.9,4.9,67,0.00,,---,0.00,VWS V14.01,2013-07-12 09:16:00,
2013-07-12 04:22:00,74.3,62.2,30.03,South,180,0.0,0.0,66,0.00,,---,0.00,VWS V14.01,2013-07-12 09:22:00,
2013-07-12 04:28:00,74.5,62.8,30.03,SE,135,2.5,3.6,67,0.00,,---,0.00,VWS V14.01,2013-07-12 09:28:00,
2013-07-12 04:33:00,74.3,62.6,30.03,SSE,158,3.8,3.8,67,0.00,,---,0.00,VWS V14.01,2013-07-12 09:33:00,
2013-07-12 04:39:00,74.5,62.8,30.03,SE,135,2.2,4.0,67,0.00,,---,0.00,VWS V14.01,2013-07-12 09:39:00,
2013-07-12 04:44:00,74.7,63.0,30.03,SE,135,3.1,5.8,67,0.00,,---,0.00,VWS V14.01,2013-07-12 09:44:00,
2013-07-12 04:50:00,74.7,62.6,30.03,SE,135,0.0,1.6,66,0.00,,---,0.00,VWS V14.01,2013-07-12 09:50:00,
2013-07-12 04:56:00,74.7,62.6,30.03,SE,135,3.4,5.4,66,0.00,,---,0.00,VWS V14.01,2013-07-12 09:56:00,
2013-07-12 05:01:00,74.7,62.6,30.03,ESE,112,2.9,4.3,66,0.00,,---,0.00,VWS V14.01,2013-07-12 10:01:00,
2013-07-12 05:07:00,74.7,62.6,30.03,SE,135,3.6,3.6,66,0.00,,---,0.00,VWS V14.01,2013-07-12 10:07:00,
2013-07-12 05:12:00,74.7,62.6,30.03,SE,135,4.0,5.8,66,0.00,,---,0.00,VWS V14.01,2013-07-12 10:12:00,
2013-07-12 05:18:00,74.8,62.3,30.03,SSE,158,4.0,4.3,65,0.00,,---,0.00,VWS V14.01,2013-07-12 10:18:00,
2013-07-12 05:23:00,74.8,62.7,30.03,SE,135,3.1,3.6,66,0.00,,---,0.00,VWS V14.01,2013-07-12 10:23:00,
2013-07-12 05:28:00,74.7,62.6,30.03,SE,135,7.4,7.4,66,0.00,,---,0.00,VWS V14.01,2013-07-12 10:28:00,
2013-07-12 05:34:00,74.8,62.3,30.03,SE,135,4.3,7.6,65,0.00,,---,0.00,VWS V14.01,2013-07-12 10:34:00,
2013-07-12 05:39:00,74.8,62.3,30.03,SE,135,6.0,6.0,65,0.00,,---,0.00,VWS V14.01,2013-07-12 10:39:00,
2013-07-12 05:44:00,74.7,62.1,30.03,SSE,158,3.6,7.4,65,0.00,,---,0.00,VWS V14.01,2013-07-12 10:44:00,
2013-07-12 05:49:00,74.7,62.6,30.03,SE,135,2.9,5.6,66,0.00,,---,0.00,VWS V14.01,2013-07-12 10:49:00,
2013-07-12 05:54:00,74.5,62.4,30.03,SE,135,1.6,3.6,66,0.00,,---,0.00,VWS V14.01,2013-07-12 10:54:00,
2013-07-12 06:00:00,74.1,62.0,30.03,SE,135,0.0,3.1,66,0.00,,---,0.00,VWS V14.01,2013-07-12 11:00:00,
2013-07-12 06:06:00,73.9,62.3,30.03,South,180,0.0,3.6,67,0.00,,---,0.00,VWS V14.01,2013-07-12 11:06:00,
2013-07-12 06:11:00,73.8,62.1,30.03,SE,135,2.7,2.7,67,0.00,,---,0.00,VWS V14.01,2013-07-12 11:11:00,
2013-07-12 06:16:00,73.8,62.1,30.03,SE,135,0.0,1.6,67,0.00,,---,0.00,VWS V14.01,2013-07-12 11:16:00,
2013-07-12 06:21:00,73.4,61.8,30.03,SSE,158,0.0,1.1,67,0.00,,---,0.00,VWS V14.01,2013-07-12 11:21:00,
2013-07-12 06:27:00,73.4,62.2,30.06,South,180,0.0,0.0,68,0.00,,---,0.00,VWS V14.01,2013-07-12 11:27:00,
2013-07-12 06:32:00,73.6,62.4,30.06,SE,135,6.0,6.0,68,0.00,,---,0.00,VWS V14.01,2013-07-12 11:32:00,
2013-07-12 06:38:00,73.6,62.4,30.06,SE,135,1.3,3.8,68,0.00,,---,0.00,VWS V14.01,2013-07-12 11:38:00,
2013-07-12 06:43:00,73.8,62.5,30.03,ESE,112,5.8,5.8,68,0.00,,---,0.00,VWS V14.01,2013-07-12 11:43:00,
2013-07-12 06:49:00,74.1,62.9,30.03,SE,135,2.5,6.0,68,0.00,,---,0.00,VWS V14.01,2013-07-12 11:49:00,
2013-07-12 06:55:00,74.5,62.8,30.06,SE,135,6.0,6.0,67,0.00,,---,0.00,VWS V14.01,2013-07-12 11:55:00,
2013-07-12 07:00:00,74.7,63.0,30.06,SE,135,2.9,5.4,67,0.00,,---,0.00,VWS V14.01,2013-07-12 12:00:00,
2013-07-12 07:06:00,75.0,63.3,30.06,SSE,158,3.1,5.4,67,0.00,,---,0.00,VWS V14.01,2013-07-12 12:06:00,
2013-07-12 07:11:00,75.4,63.2,30.06,SE,135,2.5,3.8,66,0.00,,---,0.00,VWS V14.01,2013-07-12 12:11:00,
2013-07-12 07:17:00,75.7,63.6,30.06,SSE,158,2.9,5.4,66,0.00,,---,0.00,VWS V14.01,2013-07-12 12:17:00,
2013-07-12 07:22:00,76.1,63.9,30.06,SSE,158,2.7,2.9,66,0.00,,---,0.00,VWS V14.01,2013-07-12 12:22:00,
2013-07-12 07:27:00,76.5,64.3,30.06,SE,135,4.9,4.9,66,0.00,,---,0.00,VWS V14.01,2013-07-12 12:27:00,
2013-07-12 07:33:00,77.0,64.3,30.06,SE,135,1.3,2.7,65,0.00,,---,0.00,VWS V14.01,2013-07-12 12:33:00,
2013-07-12 07:38:00,77.5,64.4,30.06,South,180,2.9,3.6,64,0.00,,---,0.00,VWS V14.01,2013-07-12 12:38:00,
2013-07-12 07:44:00,78.1,64.9,30.06,SSW,202,0.9,2.9,64,0.00,,---,0.00,VWS V14.01,2013-07-12 12:44:00,
2013-07-12 07:49:00,78.6,65.0,30.06,SSW,202,3.6,3.6,63,0.00,,---,0.00,VWS V14.01,2013-07-12 12:49:00,
2013-07-12 07:54:00,79.0,65.3,30.06,SSW,202,2.9,4.0,63,0.00,,---,0.00,VWS V14.01,2013-07-12 12:54:00,
2013-07-12 07:59:00,79.2,65.0,30.06,South,180,2.5,6.0,62,0.00,,---,0.00,VWS V14.01,2013-07-12 12:59:00,
2013-07-12 08:05:00,79.7,65.5,30.06,SE,135,3.8,5.6,62,0.00,,---,0.00,VWS V14.01,2013-07-12 13:05:00,
2013-07-12 08:10:00,79.9,65.7,30.06,SE,135,3.8,4.9,62,0.00,,---,0.00,VWS V14.01,2013-07-12 13:10:00,
2013-07-12 08:15:00,80.2,66.1,30.06,SSE,158,2.7,3.1,62,0.00,,---,0.00,VWS V14.01,2013-07-12 13:15:00,
2013-07-12 08:20:00,80.6,65.9,30.06,SSW,202,3.8,3.8,61,0.00,,---,0.00,VWS V14.01,2013-07-12 13:20:00,
2013-07-12 08:26:00,81.3,66.6,30.06,South,180,0.9,2.9,61,0.00,,---,0.00,VWS V14.01,2013-07-12 13:26:00,
2013-07-12 08:31:00,81.7,66.5,30.06,South,180,1.6,3.8,60,0.00,,---,0.00,VWS V14.01,2013-07-12 13:31:00,
2013-07-12 08:37:00,82.9,67.6,30.06,South,180,0.0,2.5,60,0.00,,---,0.00,VWS V14.01,2013-07-12 13:37:00,
2013-07-12 08:43:00,83.7,67.3,30.09,South,180,1.6,7.4,58,0.00,,---,0.00,VWS V14.01,2013-07-12 13:43:00,
2013-07-12 08:48:00,84.4,67.5,30.09,SSE,158,1.3,4.0,57,0.00,,---,0.00,VWS V14.01,2013-07-12 13:48:00,
2013-07-12 08:54:00,85.1,67.7,30.09,SSE,158,1.3,2.2,56,0.00,,---,0.00,VWS V14.01,2013-07-12 13:54:00,
2013-07-12 08:59:00,85.1,66.1,30.06,SSW,202,2.9,5.6,53,0.00,,---,0.00,VWS V14.01,2013-07-12 13:59:00,
2013-07-12 09:05:00,84.9,67.0,30.06,SSE,158,1.6,2.5,55,0.00,,---,0.00,VWS V14.01,2013-07-12 14:05:00,
2013-07-12 09:11:00,86.2,67.1,30.06,SSW,202,5.4,5.4,53,0.00,,---,0.00,VWS V14.01,2013-07-12 14:11:00,
2013-07-12 09:16:00,86.4,66.7,30.06,South,180,3.1,5.8,52,0.00,,---,0.00,VWS V14.01,2013-07-12 14:16:00,
2013-07-12 09:22:00,87.1,67.3,30.06,SSW,202,3.1,6.0,52,0.00,,---,0.00,VWS V14.01,2013-07-12 14:22:00,
2013-07-12 09:27:00,87.3,66.9,30.09,SE,135,3.6,3.6,51,0.00,,---,0.00,VWS V14.01,2013-07-12 14:27:00,
2013-07-12 09:32:00,87.8,66.9,30.09,SSE,158,2.2,4.9,50,0.00,,---,0.00,VWS V14.01,2013-07-12 14:32:00,
2013-07-12 09:37:00,88.0,67.0,30.09,SSW,202,6.0,6.0,50,0.00,,---,0.00,VWS V14.01,2013-07-12 14:37:00,
2013-07-12 09:43:00,88.7,67.1,30.06,SE,135,3.6,6.0,49,0.00,,---,0.00,VWS V14.01,2013-07-12 14:43:00,
2013-07-12 09:48:00,88.7,67.1,30.06,SSW,202,3.6,3.6,49,0.00,,---,0.00,VWS V14.01,2013-07-12 14:48:00,
2013-07-12 09:54:00,88.9,67.3,30.06,SE,135,6.5,6.5,49,0.00,,---,0.00,VWS V14.01,2013-07-12 14:54:00,
2013-07-12 09:57:00,89.1,66.8,30.06,SSW,202,3.6,4.7,48,0.00,,---,0.00,VWS V14.01,2013-07-12 14:57:00,
2013-07-12 10:02:00,90.5,68.8,30.06,SSW,202,2.5,3.6,49,0.00,,---,0.00,VWS V14.01,2013-07-12 15:02:00,
2013-07-12 10:08:00,90.3,66.8,30.06,SSE,158,3.1,11.2,46,0.00,,---,0.00,VWS V14.01,2013-07-12 15:08:00,
2013-07-12 10:14:00,91.6,67.9,30.06,SSE,158,3.8,4.9,46,0.00,,---,0.00,VWS V14.01,2013-07-12 15:14:00,
2013-07-12 10:19:00,92.1,68.4,30.06,South,180,2.9,3.6,46,0.00,,---,0.00,VWS V14.01,2013-07-12 15:19:00,
2013-07-12 10:25:00,91.9,67.6,30.06,SE,135,3.6,4.9,45,0.00,,---,0.00,VWS V14.01,2013-07-12 15:25:00,
2013-07-12 10:30:00,92.8,67.7,30.06,SSW,202,5.8,5.8,44,0.00,,---,0.00,VWS V14.01,2013-07-12 15:30:00,
2013-07-12 10:36:00,93.0,67.2,30.06,SSW,202,2.7,5.4,43,0.00,,---,0.00,VWS V14.01,2013-07-12 15:36:00,
2013-07-12 10:41:00,93.0,67.2,30.06,SSW,202,10.3,10.3,43,0.00,,---,0.00,VWS V14.01,2013-07-12 15:41:00,
2013-07-12 10:47:00,93.9,67.4,30.06,SSW,202,5.4,7.4,42,0.00,,---,0.00,VWS V14.01,2013-07-12 15:47:00,
2013-07-12 10:53:00,94.8,67.5,30.06,South,180,1.1,4.3,41,0.00,,---,0.00,VWS V14.01,2013-07-12 15:53:00,
2013-07-12 10:58:00,95.0,67.6,30.06,South,180,1.1,2.9,41,0.00,,---,0.00,VWS V14.01,2013-07-12 15:58:00,
2013-07-12 11:04:00,95.2,67.1,30.06,SSW,202,4.0,4.0,40,0.00,,---,0.00,VWS V14.01,2013-07-12 16:04:00,
2013-07-12 11:10:00,95.4,67.2,30.06,SSW,202,3.6,6.0,40,0.00,,---,0.00,VWS V14.01,2013-07-12 16:10:00,
2013-07-12 11:15:00,97.0,67.9,30.06,SSW,202,2.9,4.9,39,0.00,,---,0.00,VWS V14.01,2013-07-12 16:15:00,
2013-07-12 11:21:00,96.6,67.6,30.06,SSW,202,3.8,4.0,39,0.00,,---,0.00,VWS V14.01,2013-07-12 16:21:00,
2013-07-12 11:26:00,97.0,67.2,30.06,SE,135,3.8,3.8,38,0.00,,---,0.00,VWS V14.01,2013-07-12 16:26:00,
2013-07-12 11:32:00,97.3,67.5,30.06,South,180,5.6,5.6,38,0.00,,---,0.00,VWS V14.01,2013-07-12 16:32:00,
2013-07-12 11:37:00,96.8,66.2,30.06,SW,225,1.3,8.5,37,0.00,,---,0.00,VWS V14.01,2013-07-12 16:37:00,
2013-07-12 11:43:00,96.8,66.2,30.06,South,180,4.0,6.3,37,0.00,,---,0.00,VWS V14.01,2013-07-12 16:43:00,
2013-07-12 11:49:00,97.0,66.4,30.06,South,180,5.4,6.3,37,0.00,,---,0.00,VWS V14.01,2013-07-12 16:49:00,
2013-07-12 11:54:00,97.3,66.7,30.06,South,180,3.4,5.6,37,0.00,,---,0.00,VWS V14.01,2013-07-12 16:54:00,
2013-07-12 12:00:00,98.6,67.8,30.03,SSW,202,2.0,3.1,37,0.00,,---,0.00,VWS V14.01,2013-07-12 17:00:00,
2013-07-12 12:05:00,99.0,68.2,30.03,SW,225,2.2,3.8,37,0.00,,---,0.00,VWS V14.01,2013-07-12 17:05:00,
2013-07-12 12:11:00,99.5,67.8,30.03,South,180,7.8,7.8,36,0.00,,---,0.00,VWS V14.01,2013-07-12 17:11:00,
2013-07-12 12:17:00,98.8,67.2,30.03,SSW,202,2.7,6.3,36,0.00,,---,0.00,VWS V14.01,2013-07-12 17:17:00,
2013-07-12 12:22:00,99.7,68.0,30.03,South,180,3.4,5.8,36,0.00,,---,0.00,VWS V14.01,2013-07-12 17:22:00,
2013-07-12 12:28:00,99.5,67.8,30.03,SSW,202,3.4,6.0,36,0.00,,---,0.00,VWS V14.01,2013-07-12 17:28:00,
2013-07-12 12:35:00,99.9,66.5,30.03,SSW,202,2.7,6.3,34,0.00,,---,0.00,VWS V14.01,2013-07-12 17:35:00,
2013-07-12 12:40:00,99.9,66.5,30.03,SE,135,5.4,5.4,34,0.00,,---,0.00,VWS V14.01,2013-07-12 17:40:00,
2013-07-12 12:46:00,100.0,66.7,30.03,SSW,202,1.1,5.6,34,0.00,,---,0.00,VWS V14.01,2013-07-12 17:46:00,
2013-07-12 12:51:00,100.0,66.7,30.03,SSW,202,5.4,6.3,34,0.00,,---,0.00,VWS V14.01,2013-07-12 17:51:00,
2013-07-12 12:57:00,100.4,67.0,30.03,SSE,158,6.0,6.3,34,0.00,,---,0.00,VWS V14.01,2013-07-12 17:57:00,
2013-07-12 13:03:00,100.4,66.1,30.03,SW,225,6.3,7.8,33,0.00,,---,0.00,VWS V14.01,2013-07-12 18:03:00,
2013-07-12 13:08:00,100.4,66.1,30.03,SSW,202,5.4,5.6,33,0.00,,---,0.00,VWS V14.01,2013-07-12 18:08:00,
2013-07-12 13:14:00,100.6,66.3,30.03,SE,135,3.4,3.6,33,0.00,,---,0.00,VWS V14.01,2013-07-12 18:14:00,
2013-07-12 13:20:00,101.8,67.3,30.03,SSE,158,2.0,3.1,33,0.00,,---,0.00,VWS V14.01,2013-07-12 18:20:00,
2013-07-12 13:25:00,102.2,66.8,30.03,South,180,6.7,7.6,32,0.00,,---,0.00,VWS V14.01,2013-07-12 18:25:00,
2013-07-12 13:31:00,102.6,67.1,30.03,West,270,5.6,5.6,32,0.00,,---,0.00,VWS V14.01,2013-07-12 18:31:00,
2013-07-12 13:36:00,102.4,66.0,30.03,South,180,8.1,8.1,31,0.00,,---,0.00,VWS V14.01,2013-07-12 18:36:00,
2013-07-12 13:43:00,101.8,65.6,30.03,South,180,2.9,7.2,31,0.00,,---,0.00,VWS V14.01,2013-07-12 18:43:00,
2013-07-12 13:49:00,101.3,64.1,30.03,South,180,4.9,7.6,30,0.00,,---,0.00,VWS V14.01,2013-07-12 18:49:00,
2013-07-12 13:54:00,102.6,66.2,30.03,SW,225,3.6,8.7,31,0.00,,---,0.00,VWS V14.01,2013-07-12 18:54:00,
2013-07-12 14:01:00,103.1,65.7,30.03,SSW,202,4.0,6.0,30,0.00,,---,0.00,VWS V14.01,2013-07-12 19:01:00,
2013-07-12 14:06:00,103.5,66.0,30.03,West,270,2.7,3.6,30,0.00,,---,0.00,VWS V14.01,2013-07-12 19:06:00,
2013-07-12 14:11:00,103.8,66.3,30.03,SSE,158,4.9,4.9,30,0.00,,---,0.00,VWS V14.01,2013-07-12 19:11:00,
2013-07-12 14:18:00,103.3,65.8,30.03,SSE,158,3.8,4.0,30,0.00,,---,0.00,VWS V14.01,2013-07-12 19:18:00,
2013-07-12 14:24:00,100.9,64.8,30.03,South,180,2.5,7.6,31,0.00,,---,0.00,VWS V14.01,2013-07-12 19:24:00,
2013-07-12 14:29:00,102.6,66.2,30.03,SSE,158,2.7,4.9,31,0.00,,---,0.00,VWS V14.01,2013-07-12 19:29:00,
2013-07-12 14:34:00,101.8,65.6,30.03,South,180,3.4,7.4,31,0.00,,---,0.00,VWS V14.01,2013-07-12 19:34:00,
2013-07-12 14:39:00,100.8,64.6,30.03,SSW,202,3.6,7.2,31,0.00,,---,0.00,VWS V14.01,2013-07-12 19:39:00,
2013-07-12 14:47:00,102.9,66.5,30.03,South,180,3.1,9.6,31,0.00,,---,0.00,VWS V14.01,2013-07-12 19:47:00,
2013-07-12 14:52:00,103.5,66.0,30.03,South,180,2.9,7.8,30,0.00,,---,0.00,VWS V14.01,2013-07-12 19:52:00,
2013-07-12 14:58:00,102.7,65.4,30.03,East,90,2.9,5.6,30,0.00,,---,0.00,VWS V14.01,2013-07-12 19:58:00,
2013-07-12 15:03:00,101.3,64.1,30.03,SSW,202,2.0,7.2,30,0.00,,---,0.00,VWS V14.01,2013-07-12 20:03:00,
2013-07-12 15:09:00,101.8,65.6,30.03,South,180,1.3,8.5,31,0.00,,---,0.00,VWS V14.01,2013-07-12 20:09:00,
2013-07-12 15:14:00,102.9,65.5,30.03,SW,225,7.8,7.8,30,0.00,,---,0.00,VWS V14.01,2013-07-12 20:14:00,
2013-07-12 15:20:00,103.1,65.7,30.03,ESE,112,2.5,5.8,30,0.00,,---,0.00,VWS V14.01,2013-07-12 20:20:00,
2013-07-12 15:25:00,102.4,65.1,30.03,SW,225,2.7,10.1,30,0.00,,---,0.00,VWS V14.01,2013-07-12 20:25:00,
2013-07-12 15:31:00,102.6,65.2,30.03,South,180,3.4,5.6,30,0.00,,---,0.00,VWS V14.01,2013-07-12 20:31:00,
2013-07-12 15:36:00,103.3,65.8,30.03,SSE,158,5.4,5.6,30,0.00,,---,0.00,VWS V14.01,2013-07-12 20:36:00,
2013-07-12 15:41:00,103.3,64.9,30.03,South,180,3.8,10.3,29,0.00,,---,0.00,VWS V14.01,2013-07-12 20:41:00,
2013-07-12 15:47:00,102.7,64.4,30.03,South,180,3.8,7.2,29,0.00,,---,0.00,VWS V14.01,2013-07-12 20:47:00,
2013-07-12 15:53:00,103.5,66.0,30.03,ESE,112,4.3,4.9,30,0.00,,---,0.00,VWS V14.01,2013-07-12 20:53:00,
2013-07-12 15:58:00,103.1,64.7,30.03,SSE,158,1.6,5.6,29,0.00,,---,0.00,VWS V14.01,2013-07-12 20:58:00,
2013-07-12 16:04:00,103.8,65.3,30.03,SSW,202,2.0,8.1,29,0.00,,---,0.00,VWS V14.01,2013-07-12 21:04:00,
2013-07-12 16:10:00,104.2,64.6,30.00,SSE,158,2.0,3.8,28,0.00,,---,0.00,VWS V14.01,2013-07-12 21:10:00,
2013-07-12 16:18:00,103.5,65.0,30.00,SSE,158,4.0,6.3,29,0.00,,---,0.00,VWS V14.01,2013-07-12 21:18:00,
2013-07-12 16:24:00,102.4,64.1,30.00,SSW,202,3.6,8.1,29,0.00,,---,0.00,VWS V14.01,2013-07-12 21:24:00,
2013-07-12 16:30:00,102.6,64.2,30.00,SE,135,3.4,5.8,29,0.00,,---,0.00,VWS V14.01,2013-07-12 21:30:00,
2013-07-12 16:36:00,103.3,64.9,30.00,South,180,5.8,5.8,29,0.00,,---,0.00,VWS V14.01,2013-07-12 21:36:00,
2013-07-12 16:41:00,102.0,63.8,30.00,South,180,6.9,7.4,29,0.00,,---,0.00,VWS V14.01,2013-07-12 21:41:00,
2013-07-12 16:46:00,102.7,64.4,30.00,SE,135,1.6,5.6,29,0.00,,---,0.00,VWS V14.01,2013-07-12 21:46:00,
2013-07-12 16:52:00,102.9,64.6,30.00,SSW,202,4.9,6.7,29,0.00,,---,0.00,VWS V14.01,2013-07-12 21:52:00,
2013-07-12 16:59:00,102.4,63.1,30.00,West,270,3.1,8.5,28,0.00,,---,0.00,VWS V14.01,2013-07-12 21:59:00,
2013-07-12 17:06:00,102.4,64.1,30.00,SSE,158,3.1,7.2,29,0.00,,---,0.00,VWS V14.01,2013-07-12 22:06:00,
2013-07-12 17:12:00,102.7,64.4,30.00,SSW,202,1.3,7.4,29,0.00,,---,0.00,VWS V14.01,2013-07-12 22:12:00,
2013-07-12 17:18:00,102.6,63.2,30.00,South,180,7.8,8.5,28,0.00,,---,0.00,VWS V14.01,2013-07-12 22:18:00,
2013-07-12 17:24:00,102.9,64.6,30.00,SE,135,10.7,10.7,29,0.00,,---,0.00,VWS V14.01,2013-07-12 22:24:00,
2013-07-12 17:29:00,102.7,64.4,30.00,South,180,2.9,6.3,29,0.00,,---,0.00,VWS V14.01,2013-07-12 22:29:00,
2013-07-12 17:34:00,102.7,64.4,30.00,SE,135,6.5,7.6,29,0.00,,---,0.00,VWS V14.01,2013-07-12 22:34:00,
2013-07-12 17:40:00,102.0,63.8,30.00,SSW,202,2.5,2.9,29,0.00,,---,0.00,VWS V14.01,2013-07-12 22:40:00,
2013-07-12 17:45:00,101.8,63.6,30.00,SSW,202,4.0,4.3,29,0.00,,---,0.00,VWS V14.01,2013-07-12 22:45:00,
2013-07-12 17:50:00,102.0,63.8,30.00,SSW,202,2.5,4.3,29,0.00,,---,0.00,VWS V14.01,2013-07-12 22:50:00,
2013-07-12 17:57:00,101.8,63.6,29.97,SSE,158,2.0,4.5,29,0.00,,---,0.00,VWS V14.01,2013-07-12 22:57:00,
2013-07-12 18:02:00,101.5,62.3,29.97,SSW,202,2.5,6.3,28,0.00,,---,0.00,VWS V14.01,2013-07-12 23:02:00,
2013-07-12 18:08:00,101.1,62.0,29.97,SSW,202,2.9,4.0,28,0.00,,---,0.00,VWS V14.01,2013-07-12 23:08:00,
2013-07-12 18:14:00,100.9,61.9,30.00,SE,135,4.9,7.6,28,0.00,,---,0.00,VWS V14.01,2013-07-12 23:14:00,
2013-07-12 18:19:00,100.6,62.6,30.00,South,180,3.1,6.0,29,0.00,,---,0.00,VWS V14.01,2013-07-12 23:19:00,
2013-07-12 18:25:00,100.4,62.4,29.97,SSW,202,8.1,8.1,29,0.00,,---,0.00,VWS V14.01,2013-07-12 23:25:00,
2013-07-12 18:30:00,100.6,63.5,29.97,SSW,202,10.5,10.5,30,0.00,,---,0.00,VWS V14.01,2013-07-12 23:30:00,
2013-07-12 18:36:00,100.0,63.1,29.97,SSW,202,3.6,5.6,30,0.00,,---,0.00,VWS V14.01,2013-07-12 23:36:00,
2013-07-12 18:41:00,99.7,62.8,29.97,SSW,202,3.6,8.1,30,0.00,,---,0.00,VWS V14.01,2013-07-12 23:41:00,
2013-07-12 18:48:00,99.1,63.2,29.97,SSW,202,6.3,7.8,31,0.00,,---,0.00,VWS V14.01,2013-07-12 23:48:00,
2013-07-12 18:54:00,99.0,64.0,29.97,SSW,202,5.4,7.6,32,0.00,,---,0.00,VWS V14.01,2013-07-12 23:54:00,
2013-07-12 19:00:00,98.4,64.4,29.97,SE,135,10.1,10.1,33,0.00,,---,0.00,VWS V14.01,2013-07-13 00:00:00,
2013-07-12 19:05:00,97.7,62.9,29.97,SE,135,6.3,9.4,32,0.00,,---,0.00,VWS V14.01,2013-07-13 00:05:00,
2013-07-12 19:11:00,97.3,63.5,30.00,SSW,202,3.6,5.8,33,0.00,,---,0.00,VWS V14.01,2013-07-13 00:11:00,
2013-07-12 19:16:00,97.2,63.3,30.00,SSE,158,2.9,8.5,33,0.00,,---,0.00,VWS V14.01,2013-07-13 00:16:00,
2013-07-12 19:23:00,96.8,63.0,30.00,SSE,158,7.4,7.4,33,0.00,,---,0.00,VWS V14.01,2013-07-13 00:23:00,
2013-07-12 19:29:00,96.3,63.4,30.00,SSW,202,7.8,7.8,34,0.00,,---,0.00,VWS V14.01,2013-07-13 00:29:00,
2013-07-12 19:35:00,95.9,63.0,30.00,SE,135,7.8,7.8,34,0.00,,---,0.00,VWS V14.01,2013-07-13 00:35:00,
2013-07-12 19:40:00,95.5,62.7,30.00,South,180,10.7,10.7,34,0.00,,---,0.00,VWS V14.01,2013-07-13 00:40:00,
2013-07-12 19:46:00,95.4,63.4,30.00,South,180,2.9,5.8,35,0.00,,---,0.00,VWS V14.01,2013-07-13 00:46:00,
2013-07-12 19:52:00,95.0,63.1,30.00,SSE,158,7.6,8.1,35,0.00,,---,0.00,VWS V14.01,2013-07-13 00:52:00,
2013-07-12 19:57:00,94.5,62.6,30.00,South,180,5.8,10.5,35,0.00,,---,0.00,VWS V14.01,2013-07-13 00:57:00,
2013-07-12 20:03:00,94.1,62.3,30.00,South,180,0.9,5.4,35,0.00,,---,0.00,VWS V14.01,2013-07-13 01:03:00,
2013-07-12 20:08:00,93.7,62.0,30.00,SSW,202,2.5,6.0,35,0.00,,---,0.00,VWS V14.01,2013-07-13 01:08:00,
2013-07-12 20:14:00,93.4,62.5,30.00,SSW,202,2.0,5.6,36,0.00,,---,0.00,VWS V14.01,2013-07-13 01:14:00,
2013-07-12 20:20:00,93.0,62.9,30.00,SSW,202,3.1,5.8,37,0.00,,---,0.00,VWS V14.01,2013-07-13 01:20:00,
2013-07-12 20:27:00,92.3,62.3,30.00,SE,135,5.8,10.5,37,0.00,,---,0.00,VWS V14.01,2013-07-13 01:27:00,
2013-07-12 20:32:00,91.9,62.7,30.00,SSW,202,2.5,2.5,38,0.00,,---,0.00,VWS V14.01,2013-07-13 01:32:00,
2013-07-12 20:38:00,91.4,62.2,30.00,South,180,3.6,7.2,38,0.00,,---,0.00,VWS V14.01,2013-07-13 01:38:00,
2013-07-12 20:43:00,91.0,62.7,30.00,South,180,0.9,3.4,39,0.00,,---,0.00,VWS V14.01,2013-07-13 01:43:00,
2013-07-12 20:49:00,90.7,63.1,30.00,SSW,202,4.7,6.5,40,0.00,,---,0.00,VWS V14.01,2013-07-13 01:49:00,
2013-07-12 20:54:00,90.3,62.7,30.00,SE,135,2.0,6.7,40,0.00,,---,0.00,VWS V14.01,2013-07-13 01:54:00,
2013-07-12 21:00:00,90.0,63.1,30.00,SSW,202,0.0,7.4,41,0.00,,---,0.00,VWS V14.01,2013-07-13 02:00:00,
2013-07-12 21:06:00,89.6,63.5,30.00,SE,135,0.9,4.7,42,0.00,,---,0.00,VWS V14.01,2013-07-13 02:06:00,
2013-07-12 21:11:00,89.4,63.3,30.03,South,180,2.7,4.7,42,0.00,,---,0.00,VWS V14.01,2013-07-13 02:11:00,
2013-07-12 21:18:00,89.1,63.7,30.03,SSE,158,0.0,7.8,43,0.00,,---,0.00,VWS V14.01,2013-07-13 02:18:00,
2013-07-12 21:24:00,88.9,64.2,30.03,South,180,3.8,4.9,44,0.00,,---,0.00,VWS V14.01,2013-07-13 02:24:00,
2013-07-12 21:30:00,88.7,64.7,30.03,ESE,112,3.8,3.8,45,0.00,,---,0.00,VWS V14.01,2013-07-13 02:30:00,
2013-07-12 21:35:00,88.5,64.5,30.03,South,180,3.6,5.4,45,0.00,,---,0.00,VWS V14.01,2013-07-13 02:35:00,
2013-07-12 21:41:00,88.3,64.9,30.03,South,180,3.6,4.3,46,0.00,,---,0.00,VWS V14.01,2013-07-13 02:41:00,
2013-07-12 21:46:00,88.2,65.4,30.03,SE,135,3.1,7.4,47,0.00,,---,0.00,VWS V14.01,2013-07-13 02:46:00,
2013-07-12 21:52:00,88.0,65.2,30.03,SSE,158,2.5,3.6,47,0.00,,---,0.00,VWS V14.01,2013-07-13 02:52:00,
2013-07-12 21:57:00,87.8,65.7,30.06,SSE,158,3.8,6.0,48,0.00,,---,0.00,VWS V14.01,2013-07-13 02:57:00,
2013-07-12 22:03:00,87.8,65.7,30.06,SSW,202,2.0,4.9,48,0.00,,---,0.00,VWS V14.01,2013-07-13 03:03:00,
2013-07-12 22:10:00,87.4,65.9,30.03,SSE,158,2.9,3.8,49,0.00,,---,0.00,VWS V14.01,2013-07-13 03:10:00,
2013-07-12 22:15:00,87.3,66.4,30.03,South,180,4.7,6.9,50,0.00,,---,0.00,VWS V14.01,2013-07-13 03:15:00,
2013-07-12 22:20:00,87.1,66.2,30.03,SSW,202,4.0,6.5,50,0.00,,---,0.00,VWS V14.01,2013-07-13 03:20:00,
2013-07-12 22:27:00,86.7,66.4,30.03,South,180,0.9,3.1,51,0.00,,---,0.00,VWS V14.01,2013-07-13 03:27:00,
2013-07-12 22:32:00,86.5,66.8,30.03,SSW,202,2.7,4.3,52,0.00,,---,0.00,VWS V14.01,2013-07-13 03:32:00,
2013-07-12 22:38:00,86.4,67.2,30.03,South,180,0.9,4.7,53,0.00,,---,0.00,VWS V14.01,2013-07-13 03:38:00,
2013-07-12 22:44:00,86.4,67.8,30.00,SSE,158,2.9,6.3,54,0.00,,---,0.00,VWS V14.01,2013-07-13 03:44:00,
2013-07-12 22:49:00,86.2,67.6,30.00,South,180,1.3,3.6,54,0.00,,---,0.00,VWS V14.01,2013-07-13 03:49:00,
2013-07-12 22:55:00,85.8,68.3,30.00,South,180,5.4,5.4,56,0.00,,---,0.00,VWS V14.01,2013-07-13 03:55:00,
2013-07-12 23:00:00,85.5,68.5,30.00,SSW,202,3.6,6.5,57,0.00,,---,0.00,VWS V14.01,2013-07-13 04:00:00,
2013-07-12 23:01:00,85.5,68.5,30.00,SE,135,3.6,3.6,57,0.00,,---,0.00,VWS V14.01,2013-07-13 04:01:00,
2013-07-12 23:02:00,85.5,68.5,30.00,SSE,158,2.9,4.0,57,0.00,,---,0.00,VWS V14.01,2013-07-13 04:02:00,
2013-07-12 23:03:00,85.3,68.3,30.00,SSW,202,3.1,3.1,57,0.00,,---,0.00,VWS V14.01,2013-07-13 04:03:00,
2013-07-12 23:09:00,84.9,68.0,30.00,South,180,2.5,3.6,57,0.00,,---,0.00,VWS V14.01,2013-07-13 04:09:00,
2013-07-12 23:12:00,84.9,68.5,30.03,South,180,1.6,4.7,58,0.00,,---,0.00,VWS V14.01,2013-07-13 04:12:00,
2013-07-12 23:14:00,84.7,68.3,30.03,South,180,1.1,4.5,58,0.00,,---,0.00,VWS V14.01,2013-07-13 04:14:00,
2013-07-12 23:20:00,84.6,68.7,30.03,South,180,4.7,7.2,59,0.00,,---,0.00,VWS V14.01,2013-07-13 04:20:00,
2013-07-12 23:26:00,84.6,68.7,30.03,South,180,2.9,3.1,59,0.00,,---,0.00,VWS V14.01,2013-07-13 04:26:00,
2013-07-12 23:31:00,84.4,69.0,30.03,South,180,1.3,4.3,60,0.00,,---,0.00,VWS V14.01,2013-07-13 04:31:00,
2013-07-12 23:37:00,84.0,69.1,30.03,SE,135,1.3,6.0,61,0.00,,---,0.00,VWS V14.01,2013-07-13 04:37:00,
2013-07-12 23:42:00,83.8,69.4,30.03,SE,135,2.9,4.9,62,0.00,,---,0.00,VWS V14.01,2013-07-13 04:42:00,
2013-07-12 23:48:00,83.8,69.4,30.03,SSW,202,3.1,3.1,62,0.00,,---,0.00,VWS V14.01,2013-07-13 04:48:00,
2013-07-12 23:53:00,83.7,69.3,30.03,SSW,202,6.5,6.5,62,0.00,,---,0.00,VWS V14.01,2013-07-13 04:53:00,
2013-07-12 23:59:00,83.5,69.6,30.03,South,180,3.6,5.4,63,0.00,,---,0.00,VWS V14.01,2013-07-13 04:59:00,